createdAt,value
2023-05-25T00:01:11.506Z,23.20
2023-05-25T00:03:46.347Z,26.90
2023-05-25T00:06:20.508Z,23.10
2023-05-25T00:08:57.912Z,25.20
2023-05-25T00:11:31.443Z,25.40
2023-05-25T00:14:05.530Z,24.00
2023-05-25T00:16:41.081Z,25.60
2023-05-25T00:19:15.731Z,24.60
2023-05-25T00:21:50.373Z,25.40
2023-05-25T00:24:24.124Z,25.40
2023-05-25T00:26:57.593Z,27.30
2023-05-25T00:29:31.312Z,25.00
2023-05-25T00:32:05.386Z,28.30
2023-05-25T00:34:39.651Z,28.60
2023-05-25T00:37:13.800Z,27.80
2023-05-25T00:39:50.452Z,27.20
2023-05-25T00:42:24.303Z,28.40
2023-05-25T00:44:58.190Z,28.80
2023-05-25T00:47:32.157Z,30.30
2023-05-25T00:50:10.278Z,28.90
2023-05-25T00:52:44.054Z,30.70
2023-05-25T00:55:20.938Z,33.00
2023-05-25T00:57:57.684Z,30.00
2023-05-25T01:00:32.596Z,29.80
2023-05-25T01:03:12.382Z,34.00
2023-05-25T01:05:49.266Z,34.10
2023-05-25T01:08:26.198Z,32.40
2023-05-25T01:11:02.299Z,35.00
2023-05-25T01:13:38.572Z,37.50
2023-05-25T01:16:12.964Z,32.90
2023-05-25T01:18:53.413Z,34.90
2023-05-25T01:21:31.230Z,38.90
2023-05-25T01:24:12.645Z,36.30
2023-05-25T01:26:56.551Z,36.90
2023-05-25T01:29:34.891Z,36.80
2023-05-25T01:32:10.513Z,36.70
2023-05-25T01:34:45.362Z,36.80
2023-05-25T01:37:20.799Z,35.80
2023-05-25T01:39:55.580Z,37.00
2023-05-25T01:42:29.546Z,36.50
2023-05-25T01:45:04.236Z,36.00
2023-05-25T01:47:47.103Z,35.00
2023-05-25T01:50:28.509Z,32.40
2023-05-25T01:53:06.760Z,32.30
2023-05-25T01:55:45.529Z,40.80
2023-05-25T01:58:21.567Z,31.50
2023-05-25T02:00:57.222Z,34.50
2023-05-25T02:03:31.702Z,32.30
2023-05-25T02:06:05.613Z,30.70
2023-05-25T02:08:42.122Z,31.90
2023-05-25T02:11:16.583Z,31.30
2023-05-25T02:13:52.205Z,33.00
2023-05-25T02:16:27.872Z,32.60
2023-05-25T02:19:01.795Z,30.00
2023-05-25T02:21:37.449Z,33.50
2023-05-25T02:24:11.737Z,34.00
2023-05-25T02:26:45.548Z,30.40
2023-05-25T02:29:19.568Z,29.60
2023-05-25T02:31:53.538Z,30.80
2023-05-25T02:34:27.119Z,33.90
2023-05-25T02:37:02.732Z,32.80
2023-05-25T02:39:36.913Z,32.80
2023-05-25T02:42:10.941Z,28.90
2023-05-25T02:44:48.932Z,31.00
2023-05-25T02:47:23.269Z,30.70
2023-05-25T02:49:57.482Z,29.20
2023-05-25T02:52:33.118Z,30.40
2023-05-25T02:55:07.131Z,30.70
2023-05-25T02:57:43.581Z,29.40
2023-05-25T03:00:19.829Z,30.20
2023-05-25T03:02:53.650Z,29.10
2023-05-25T03:05:28.650Z,29.20
2023-05-25T03:08:02.371Z,29.90
2023-05-25T03:10:38.168Z,31.10
2023-05-25T03:13:13.549Z,34.50
2023-05-25T03:15:47.318Z,31.60
2023-05-25T03:18:22.310Z,33.20
2023-05-25T03:20:56.419Z,30.70
2023-05-25T03:23:30.815Z,31.00
2023-05-25T03:26:04.617Z,29.10
2023-05-25T03:28:39.822Z,32.20
2023-05-25T03:31:14.470Z,33.40
2023-05-25T03:33:48.141Z,31.10
2023-05-25T03:36:22.619Z,33.50
2023-05-25T03:38:56.531Z,33.70
2023-05-25T03:41:30.837Z,32.40
2023-05-25T03:44:04.553Z,31.90
2023-05-25T03:46:40.196Z,33.70
2023-05-25T03:49:14.415Z,32.50
2023-05-25T03:51:48.448Z,34.40
2023-05-25T03:54:23.517Z,32.50
2023-05-25T03:56:59.196Z,28.70
2023-05-25T03:59:33.192Z,31.10
2023-05-25T04:02:06.988Z,32.80
2023-05-25T04:04:44.889Z,32.40
2023-05-25T04:07:18.805Z,31.00
2023-05-25T04:09:52.392Z,34.00
2023-05-25T04:12:25.839Z,31.80
2023-05-25T04:14:59.728Z,33.20
2023-05-25T04:17:36.342Z,35.30
2023-05-25T04:20:13.601Z,35.50
2023-05-25T04:22:47.911Z,33.00
2023-05-25T04:25:22.518Z,34.20
2023-05-25T04:27:57.149Z,31.80
2023-05-25T04:31:04.079Z,33.00
2023-05-25T04:33:49.695Z,35.10
2023-05-25T04:36:35.166Z,34.30
2023-05-25T04:39:11.463Z,33.70
2023-05-25T04:41:50.243Z,38.30
2023-05-25T04:44:26.237Z,31.30
2023-05-25T04:47:01.747Z,35.50
2023-05-25T04:49:38.838Z,33.50
2023-05-25T04:52:15.218Z,34.30
2023-05-25T04:54:49.061Z,34.90
2023-05-25T04:57:23.069Z,35.20
2023-05-25T04:59:56.970Z,31.80
2023-05-25T05:02:31.227Z,33.90
2023-05-25T05:05:05.722Z,33.00
2023-05-25T05:07:39.851Z,32.50
2023-05-25T05:10:15.009Z,34.20
2023-05-25T05:12:53.886Z,32.60
2023-05-25T05:15:27.950Z,33.60
2023-05-25T05:18:02.926Z,34.20
2023-05-25T05:20:37.714Z,33.10
2023-05-25T05:23:11.945Z,33.40
2023-05-25T05:25:46.661Z,31.00
2023-05-25T05:28:21.895Z,33.30
2023-05-25T05:30:56.092Z,34.30
2023-05-25T05:33:30.796Z,33.80
2023-05-25T05:36:06.088Z,31.00
2023-05-25T05:38:41.931Z,32.30
2023-05-25T05:41:15.691Z,32.50
2023-05-25T05:43:55.421Z,32.00
2023-05-25T05:46:28.860Z,32.10
2023-05-25T05:49:03.052Z,33.40
2023-05-25T05:51:37.670Z,32.80
2023-05-25T05:54:12.074Z,28.70
2023-05-25T05:56:45.579Z,28.60
2023-05-25T05:59:19.821Z,29.70
2023-05-25T06:01:54.176Z,26.50
2023-05-25T06:04:29.368Z,34.20
2023-05-25T06:07:03.888Z,30.30
2023-05-25T06:09:37.621Z,30.20
2023-05-25T06:12:12.717Z,30.40
2023-05-25T06:14:50.502Z,26.30
2023-05-25T06:17:24.893Z,31.00
2023-05-25T06:20:00.886Z,28.70
2023-05-25T06:22:35.104Z,26.30
2023-05-25T06:25:10.765Z,29.20
2023-05-25T06:27:44.553Z,31.60
2023-05-25T06:30:19.085Z,30.80
2023-05-25T06:32:52.850Z,31.70
2023-05-25T06:35:26.925Z,31.00
2023-05-25T06:38:02.236Z,29.70
2023-05-25T06:40:35.976Z,32.60
2023-05-25T06:43:30.133Z,28.80
2023-05-25T06:46:21.897Z,27.90
2023-05-25T06:48:55.897Z,27.00
2023-05-25T06:51:30.025Z,29.30
2023-05-25T06:54:04.154Z,29.90
2023-05-25T06:56:37.985Z,28.40
2023-05-25T06:59:11.911Z,28.80
2023-05-25T07:01:47.626Z,30.20
2023-05-25T07:04:22.943Z,26.40
2023-05-25T07:06:56.933Z,30.90
2023-05-25T07:09:30.958Z,26.30
2023-05-25T07:12:07.955Z,27.30
2023-05-25T07:14:41.888Z,30.20
2023-05-25T07:17:15.814Z,30.40
2023-05-25T07:19:50.623Z,29.90
2023-05-25T07:22:24.775Z,28.50
2023-05-25T07:24:58.893Z,26.70
2023-05-25T07:27:34.142Z,28.50
2023-05-25T07:30:09.839Z,31.10
2023-05-25T07:32:44.313Z,28.50
2023-05-25T07:35:18.385Z,28.30
2023-05-25T07:38:00.314Z,31.70
2023-05-25T07:40:34.149Z,26.00
2023-05-25T07:43:08.516Z,26.60
2023-05-25T07:45:42.588Z,27.50
2023-05-25T07:48:16.378Z,28.00
2023-05-25T07:50:50.512Z,25.90
2023-05-25T07:53:24.608Z,31.90
2023-05-25T07:55:58.388Z,26.50
2023-05-25T07:58:32.195Z,28.40
2023-05-25T08:01:08.360Z,29.10
2023-05-25T08:06:22.294Z,30.10
2023-05-25T08:08:56.459Z,27.20
2023-05-25T08:11:31.654Z,32.30
2023-05-25T08:14:05.525Z,31.80
2023-05-25T08:16:39.504Z,28.90
2023-05-25T08:19:13.162Z,24.80
2023-05-25T08:21:47.080Z,26.60
2023-05-25T08:24:21.066Z,27.80
2023-05-25T08:26:55.233Z,29.00
2023-05-25T08:29:28.866Z,31.60
2023-05-25T08:32:02.593Z,25.80
2023-05-25T08:34:36.885Z,28.00
2023-05-25T08:37:10.558Z,31.00
2023-05-25T08:39:44.917Z,29.50
2023-05-25T08:42:18.638Z,26.70
2023-05-25T08:44:52.264Z,29.60
2023-05-25T08:47:31.708Z,27.00
2023-05-25T08:50:07.824Z,29.30
2023-05-25T08:52:46.974Z,27.40
2023-05-25T08:55:22.655Z,27.50
2023-05-25T08:58:04.672Z,25.80
2023-05-25T09:00:43.139Z,30.50
2023-05-25T09:03:19.575Z,27.90
2023-05-25T09:05:53.959Z,28.10
2023-05-25T09:08:28.829Z,26.20
2023-05-25T09:11:03.872Z,27.20
2023-05-25T09:13:38.861Z,28.00
2023-05-25T09:16:13.401Z,27.40
2023-05-25T09:18:47.205Z,29.40
2023-05-25T09:21:21.217Z,28.60
2023-05-25T09:23:56.269Z,27.90
2023-05-25T09:26:30.526Z,26.10
2023-05-25T09:29:04.730Z,28.90
2023-05-25T09:31:39.044Z,28.40
2023-05-25T09:34:17.036Z,25.20
2023-05-25T09:36:51.033Z,27.10
2023-05-25T09:39:25.380Z,29.60
2023-05-25T09:41:59.922Z,27.00
2023-05-25T09:44:34.007Z,23.80
2023-05-25T09:47:08.784Z,26.30
2023-05-25T09:49:44.772Z,26.60
2023-05-25T09:52:19.511Z,28.20
2023-05-25T09:54:55.366Z,27.30
2023-05-25T09:57:30.801Z,30.70
2023-05-25T10:00:05.918Z,24.30
2023-05-25T10:02:46.174Z,27.10
2023-05-25T10:05:20.227Z,26.80
2023-05-25T10:07:56.408Z,27.20
2023-05-25T10:10:31.203Z,27.30
2023-05-25T10:13:09.507Z,28.10
2023-05-25T10:15:47.436Z,26.50
2023-05-25T10:18:27.176Z,27.70
2023-05-25T10:21:06.097Z,24.20
2023-05-25T10:23:47.869Z,25.00
2023-05-25T10:26:26.716Z,21.80
2023-05-25T10:29:04.973Z,24.20
2023-05-25T10:31:40.032Z,28.00
2023-05-25T10:34:13.725Z,20.80
2023-05-25T10:36:49.318Z,28.00
2023-05-25T10:39:25.270Z,24.60
2023-05-25T10:42:02.551Z,24.10
2023-05-25T10:44:36.938Z,23.20
2023-05-25T10:47:12.093Z,23.50
2023-05-25T10:49:59.818Z,22.40
2023-05-25T10:52:34.813Z,21.10
2023-05-25T10:55:10.615Z,20.40
2023-05-25T10:57:44.471Z,21.60
2023-05-25T11:00:19.971Z,22.00
2023-05-25T11:02:56.217Z,22.00
2023-05-25T11:05:39.323Z,20.10
2023-05-25T11:08:14.534Z,21.70
2023-05-25T11:10:55.106Z,16.70
2023-05-25T11:13:41.395Z,20.20
2023-05-25T11:16:36.811Z,17.90
2023-05-25T11:19:18.685Z,18.80
2023-05-25T11:21:55.991Z,22.40
2023-05-25T11:24:32.442Z,19.50
2023-05-25T11:27:07.555Z,19.20
2023-05-25T11:29:42.119Z,19.90
2023-05-25T11:32:18.900Z,17.00
2023-05-25T11:34:55.994Z,20.50
2023-05-25T11:37:32.038Z,16.20
2023-05-25T11:40:12.112Z,16.30
2023-05-25T11:42:48.766Z,16.00
2023-05-25T11:45:26.838Z,16.80
2023-05-25T11:48:01.511Z,17.40
2023-05-25T11:50:35.406Z,17.20
2023-05-25T11:53:11.276Z,17.20
2023-05-25T11:55:53.687Z,18.10
2023-05-25T11:58:37.308Z,16.00
2023-05-25T12:01:21.765Z,17.70
2023-05-25T12:03:57.183Z,15.00
2023-05-25T12:06:34.337Z,16.30
2023-05-25T12:09:12.898Z,16.20
2023-05-25T12:11:47.504Z,18.40
2023-05-25T12:14:21.922Z,17.20
2023-05-25T12:16:56.753Z,17.30
2023-05-25T12:19:31.013Z,16.70
2023-05-25T12:22:06.597Z,15.90
2023-05-25T12:24:41.536Z,16.20
2023-05-25T12:27:22.966Z,15.70
2023-05-25T12:30:01.342Z,14.60
2023-05-25T12:32:35.785Z,18.90
2023-05-25T12:35:11.427Z,15.80
2023-05-25T12:37:45.092Z,17.50
2023-05-25T12:40:25.034Z,15.10
2023-05-25T12:43:02.001Z,13.20
2023-05-25T12:45:41.580Z,15.50
2023-05-25T12:48:15.658Z,17.30
2023-05-25T12:51:10.888Z,15.90
2023-05-25T12:53:54.727Z,13.80
2023-05-25T12:56:28.429Z,14.00
2023-05-25T12:59:18.271Z,15.20
2023-05-25T13:01:53.308Z,15.80
2023-05-25T13:04:27.524Z,17.30
2023-05-25T13:07:01.819Z,14.70
2023-05-25T13:09:36.358Z,16.10
2023-05-25T13:12:11.677Z,15.10
2023-05-25T13:14:46.856Z,18.20
2023-05-25T13:17:22.810Z,15.60
2023-05-25T13:19:57.000Z,15.90
2023-05-25T13:22:30.749Z,13.50
2023-05-25T13:25:04.728Z,15.50
2023-05-25T13:27:39.505Z,15.00
2023-05-25T13:30:15.651Z,12.50
2023-05-25T13:32:51.689Z,16.80
2023-05-25T13:35:38.321Z,12.70
2023-05-25T13:38:13.469Z,12.70
2023-05-25T13:40:48.427Z,14.90
2023-05-25T13:43:22.415Z,14.90
2023-05-25T13:45:56.191Z,14.20
2023-05-25T13:48:30.764Z,13.00
2023-05-25T13:51:04.865Z,15.20
2023-05-25T13:53:38.508Z,13.30
2023-05-25T13:56:13.612Z,13.70
2023-05-25T13:58:47.509Z,18.10
2023-05-25T14:01:21.516Z,12.80
2023-05-25T14:03:56.596Z,16.10
2023-05-25T14:06:31.350Z,12.60
2023-05-25T14:09:06.504Z,13.90
2023-05-25T14:11:41.354Z,17.40
2023-05-25T14:14:30.027Z,15.00
2023-05-25T14:17:06.435Z,18.30
2023-05-25T14:19:40.787Z,13.80
2023-05-25T14:22:14.959Z,15.40
2023-05-25T14:24:49.515Z,14.00
2023-05-25T14:27:23.499Z,21.10
2023-05-25T14:29:57.621Z,15.10
2023-05-25T14:32:31.587Z,14.30
2023-05-25T14:35:06.460Z,16.50
2023-05-25T14:37:48.075Z,15.80
2023-05-25T14:40:22.642Z,13.00
2023-05-25T14:42:57.099Z,14.90
2023-05-25T14:45:31.248Z,18.90
2023-05-25T14:48:16.174Z,13.10
2023-05-25T14:50:51.611Z,14.50
2023-05-25T14:53:25.836Z,13.00
2023-05-25T14:55:59.750Z,16.30
2023-05-25T14:58:34.631Z,13.00
2023-05-25T15:01:09.451Z,17.30
2023-05-25T15:03:43.842Z,14.90
2023-05-25T15:06:17.975Z,13.10
2023-05-25T15:08:51.802Z,15.10
2023-05-25T15:11:26.069Z,18.80
2023-05-25T15:14:00.828Z,12.70
2023-05-25T15:16:34.675Z,15.50
2023-05-25T15:19:11.416Z,15.80
2023-05-25T15:21:46.782Z,13.20
2023-05-25T15:24:20.387Z,13.90
2023-05-25T15:26:54.451Z,15.00
2023-05-25T15:29:28.165Z,15.30
2023-05-25T15:32:02.096Z,14.70
2023-05-25T15:34:36.993Z,16.90
2023-05-25T15:37:12.945Z,13.70
2023-05-25T15:39:47.161Z,15.60
2023-05-25T15:42:22.860Z,13.00
2023-05-25T15:44:57.367Z,13.50
2023-05-25T15:47:31.224Z,14.10
2023-05-25T15:50:05.146Z,14.50
2023-05-25T15:52:38.708Z,16.80
2023-05-25T15:55:14.336Z,12.30
2023-05-25T15:57:48.254Z,16.20
2023-05-25T16:00:23.414Z,12.70
2023-05-25T16:02:58.626Z,14.90
2023-05-25T16:05:33.505Z,15.40
2023-05-25T16:08:07.307Z,19.10
2023-05-25T16:10:41.130Z,24.60
2023-05-25T16:13:15.226Z,17.30
2023-05-25T16:15:50.010Z,15.40
2023-05-25T16:18:24.034Z,15.70
2023-05-25T16:20:58.155Z,16.30
2023-05-25T16:23:32.078Z,14.70
2023-05-25T16:26:06.433Z,15.70
2023-05-25T16:28:40.211Z,17.70
2023-05-25T16:31:16.035Z,15.50
2023-05-25T16:33:49.816Z,17.80
2023-05-25T16:36:25.305Z,16.20
2023-05-25T16:39:00.972Z,14.80
2023-05-25T16:41:35.034Z,17.30
2023-05-25T16:44:09.038Z,15.00
2023-05-25T16:46:42.998Z,15.30
2023-05-25T16:49:18.152Z,21.80
2023-05-25T16:51:52.628Z,18.10
2023-05-25T16:54:26.386Z,19.20
2023-05-25T16:56:59.914Z,19.30
2023-05-25T16:59:33.761Z,17.90
2023-05-25T17:02:08.419Z,16.10
2023-05-25T17:04:42.245Z,15.10
2023-05-25T17:07:16.328Z,13.70
2023-05-25T17:09:50.085Z,14.10
2023-05-25T17:12:24.108Z,14.30
2023-05-25T17:14:58.007Z,13.30
2023-05-25T17:17:31.646Z,12.40
2023-05-25T17:20:05.883Z,15.40
2023-05-25T17:22:39.517Z,15.20
2023-05-25T17:25:13.509Z,14.40
2023-05-25T17:27:46.856Z,14.30
2023-05-25T17:30:21.557Z,14.30
2023-05-25T17:33:01.993Z,15.60
2023-05-25T17:35:36.584Z,16.20
2023-05-25T17:38:10.461Z,20.90
2023-05-25T17:40:44.457Z,15.30
2023-05-25T17:43:18.313Z,17.40
2023-05-25T17:45:53.199Z,15.50
2023-05-25T17:48:27.024Z,13.20
2023-05-25T17:51:00.855Z,14.70
2023-05-25T17:53:34.323Z,17.10
2023-05-25T17:56:08.945Z,15.60
2023-05-25T17:58:48.027Z,16.60
2023-05-25T18:01:21.989Z,16.70
2023-05-25T18:03:56.027Z,13.50
2023-05-25T18:06:30.316Z,13.90
2023-05-25T18:09:05.308Z,14.60
2023-05-25T18:11:39.109Z,17.70
2023-05-25T18:14:13.228Z,16.50
2023-05-25T18:16:47.123Z,14.30
2023-05-25T18:19:21.972Z,13.20
2023-05-25T18:21:56.387Z,20.90
2023-05-25T18:24:30.532Z,23.80
2023-05-25T18:27:05.277Z,17.20
2023-05-25T18:29:39.186Z,17.70
2023-05-25T18:32:13.414Z,15.60
2023-05-25T18:34:49.113Z,18.40
2023-05-25T18:37:23.641Z,16.40
2023-05-25T18:39:57.791Z,18.40
2023-05-25T18:42:31.674Z,15.60
2023-05-25T18:45:06.247Z,17.30
2023-05-25T18:47:40.318Z,18.60
2023-05-25T18:50:15.751Z,17.90
2023-05-25T18:52:53.448Z,17.60
2023-05-25T18:55:27.519Z,16.80
2023-05-25T18:58:01.423Z,19.00
2023-05-25T19:00:35.194Z,16.20
2023-05-25T19:03:08.959Z,19.70
2023-05-25T19:05:43.198Z,16.90
2023-05-25T19:08:17.382Z,21.90
2023-05-25T19:10:50.780Z,14.20
2023-05-25T19:13:24.479Z,16.50
2023-05-25T19:15:58.197Z,16.10
2023-05-25T19:18:32.010Z,15.20
2023-05-25T19:21:06.145Z,13.50
2023-05-25T19:23:39.604Z,15.00
2023-05-25T19:26:13.983Z,15.70
2023-05-25T19:28:47.650Z,15.00
2023-05-25T19:31:24.070Z,15.80
2023-05-25T19:33:58.326Z,15.70
2023-05-25T19:36:33.118Z,14.50
2023-05-25T19:39:07.265Z,15.40
2023-05-25T19:41:42.070Z,15.60
2023-05-25T19:44:16.506Z,15.60
2023-05-25T19:46:50.414Z,17.80
2023-05-25T19:49:24.233Z,16.00
2023-05-25T19:51:58.181Z,18.30
2023-05-25T19:54:32.286Z,15.20
2023-05-25T19:57:07.097Z,16.60
2023-05-25T19:59:41.229Z,16.00
2023-05-25T20:02:15.186Z,16.70
2023-05-25T20:04:49.197Z,18.00
2023-05-25T20:07:24.261Z,15.20
2023-05-25T20:09:58.017Z,13.40
2023-05-25T20:12:31.940Z,15.90
2023-05-25T20:15:05.658Z,17.60
2023-05-25T20:17:39.585Z,17.90
2023-05-25T20:20:14.088Z,17.90
2023-05-25T20:22:47.693Z,17.70
2023-05-25T20:25:21.694Z,20.30
2023-05-25T20:27:55.612Z,14.70
2023-05-25T20:30:29.077Z,15.70
2023-05-25T20:33:03.413Z,14.70
2023-05-25T20:35:37.853Z,15.10
2023-05-25T20:38:11.728Z,19.30
2023-05-25T20:40:45.553Z,14.80
2023-05-25T20:43:19.303Z,15.60
2023-05-25T20:45:53.352Z,16.60
2023-05-25T20:48:27.375Z,16.90
2023-05-25T20:51:01.294Z,17.10
2023-05-25T20:53:35.237Z,17.30
2023-05-25T20:56:09.208Z,17.70
2023-05-25T20:58:43.008Z,17.90
2023-05-25T21:01:17.053Z,16.00
2023-05-25T21:03:51.885Z,17.40
2023-05-25T21:06:26.623Z,17.50
2023-05-25T21:09:00.571Z,17.80
2023-05-25T21:11:34.075Z,18.00
2023-05-25T21:14:08.509Z,16.50
2023-05-25T21:16:42.338Z,15.70
2023-05-25T21:19:16.863Z,16.10
2023-05-25T21:21:50.791Z,16.60
2023-05-25T21:24:25.111Z,20.00
2023-05-25T21:26:58.813Z,20.20
2023-05-25T21:29:32.872Z,21.00
2023-05-25T21:32:06.824Z,18.30
2023-05-25T21:34:40.336Z,20.00
2023-05-25T21:37:13.918Z,18.70
2023-05-25T21:39:47.813Z,16.50
2023-05-25T21:42:21.864Z,17.90
2023-05-25T21:44:55.878Z,14.10
2023-05-25T21:47:29.940Z,13.70
2023-05-25T21:50:03.925Z,14.10
2023-05-25T21:52:38.360Z,16.50
2023-05-25T21:55:13.048Z,14.40
2023-05-25T21:57:46.915Z,15.00
2023-05-25T22:00:21.905Z,15.90
2023-05-25T22:02:55.794Z,14.60
2023-05-25T22:05:35.148Z,14.90
2023-05-25T22:08:09.640Z,16.20
2023-05-25T22:10:43.996Z,12.20
2023-05-25T22:13:18.831Z,15.50
2023-05-25T22:15:53.157Z,15.50
2023-05-25T22:18:27.133Z,17.00
2023-05-25T22:21:01.325Z,14.00
2023-05-25T22:23:35.115Z,14.90
2023-05-25T22:26:08.632Z,14.20
2023-05-25T22:28:42.609Z,15.40
2023-05-25T22:31:16.554Z,15.50
2023-05-25T22:33:51.220Z,14.10
2023-05-25T22:36:24.912Z,16.60
2023-05-25T22:38:58.402Z,13.90
2023-05-25T22:41:32.123Z,13.50
2023-05-25T22:44:05.521Z,15.90
2023-05-25T22:46:39.419Z,16.00
2023-05-25T22:49:13.196Z,15.50
2023-05-25T22:51:46.900Z,14.20
2023-05-25T22:54:20.911Z,15.60
2023-05-25T22:56:54.395Z,16.20
2023-05-25T22:59:28.222Z,14.60
2023-05-25T23:02:01.717Z,14.10
2023-05-25T23:04:35.475Z,15.30
2023-05-25T23:07:09.206Z,14.50
2023-05-25T23:09:43.092Z,16.60
2023-05-25T23:12:16.999Z,15.60
2023-05-25T23:14:52.674Z,14.80
2023-05-25T23:17:26.465Z,13.40
2023-05-25T23:20:00.342Z,15.70
2023-05-25T23:22:34.710Z,14.20
2023-05-25T23:25:09.881Z,17.60
2023-05-25T23:27:44.364Z,12.60
2023-05-25T23:30:19.248Z,15.70
2023-05-25T23:32:53.553Z,11.80
2023-05-25T23:35:27.404Z,11.20
2023-05-25T23:38:02.177Z,13.10
2023-05-25T23:40:35.937Z,11.20
2023-05-25T23:43:09.824Z,11.70
2023-05-25T23:45:44.095Z,13.40
2023-05-25T23:48:18.142Z,13.70
2023-05-25T23:50:51.840Z,12.20
2023-05-25T23:53:25.300Z,13.60
2023-05-25T23:55:59.613Z,13.80
2023-05-25T23:58:33.288Z,12.40
